sensor_id;sensor_type;location;lat;lon;timestamp;P1;durP1;ratioP1;P2;durP2;ratioP2
38715;SDS011;24833;49.324;8.694;2023-01-29T00:02:16;3.50;;;3.20;;
38715;SDS011;24833;49.324;8.694;2023-01-29T00:04:43;3.92;;;3.25;;
38715;SDS011;24833;49.324;8.694;2023-01-29T00:07:10;4.38;;;3.90;;
38715;SDS011;24833;49.324;8.694;2023-01-29T00:09:36;4.45;;;3.55;;
38715;SDS011;24833;49.324;8.694;2023-01-29T00:12:04;4.07;;;3.47;;
38715;SDS011;24833;49.324;8.694;2023-01-29T00:14:34;4.05;;;3.42;;
38715;SDS011;24833;49.324;8.694;2023-01-29T00:17:00;3.95;;;3.53;;
38715;SDS011;24833;49.324;8.694;2023-01-29T00:19:27;4.05;;;3.50;;
38715;SDS011;24833;49.324;8.694;2023-01-29T00:21:54;4.90;;;3.92;;
38715;SDS011;24833;49.324;8.694;2023-01-29T00:24:21;4.32;;;3.70;;
38715;SDS011;24833;49.324;8.694;2023-01-29T00:26:48;4.60;;;3.42;;
38715;SDS011;24833;49.324;8.694;2023-01-29T00:29:15;4.47;;;3.60;;
38715;SDS011;24833;49.324;8.694;2023-01-29T00:31:43;3.97;;;3.58;;
38715;SDS011;24833;49.324;8.694;2023-01-29T00:34:11;4.65;;;3.70;;
38715;SDS011;24833;49.324;8.694;2023-01-29T00:36:38;4.80;;;3.85;;
38715;SDS011;24833;49.324;8.694;2023-01-29T00:39:05;4.55;;;3.58;;
38715;SDS011;24833;49.324;8.694;2023-01-29T00:41:36;5.43;;;3.63;;
38715;SDS011;24833;49.324;8.694;2023-01-29T00:44:21;3.88;;;3.10;;
38715;SDS011;24833;49.324;8.694;2023-01-29T00:47:07;5.55;;;3.22;;
38715;SDS011;24833;49.324;8.694;2023-01-29T00:49:54;3.60;;;3.25;;
38715;SDS011;24833;49.324;8.694;2023-01-29T00:52:21;4.00;;;3.35;;
38715;SDS011;24833;49.324;8.694;2023-01-29T00:54:49;5.13;;;3.58;;
38715;SDS011;24833;49.324;8.694;2023-01-29T00:57:22;3.55;;;2.92;;
38715;SDS011;24833;49.324;8.694;2023-01-29T00:59:52;3.53;;;2.80;;
38715;SDS011;24833;49.324;8.694;2023-01-29T01:02:19;3.08;;;2.65;;
38715;SDS011;24833;49.324;8.694;2023-01-29T01:05:06;4.78;;;2.92;;
38715;SDS011;24833;49.324;8.694;2023-01-29T01:07:48;3.72;;;3.10;;
38715;SDS011;24833;49.324;8.694;2023-01-29T01:10:20;3.78;;;3.25;;
38715;SDS011;24833;49.324;8.694;2023-01-29T01:12:54;5.13;;;3.20;;
38715;SDS011;24833;49.324;8.694;2023-01-29T01:15:26;5.13;;;3.63;;
38715;SDS011;24833;49.324;8.694;2023-01-29T01:20:25;3.50;;;3.17;;
38715;SDS011;24833;49.324;8.694;2023-01-29T01:22:55;5.97;;;4.00;;
38715;SDS011;24833;49.324;8.694;2023-01-29T01:25:23;5.18;;;3.50;;
38715;SDS011;24833;49.324;8.694;2023-01-29T01:27:55;4.28;;;3.25;;
38715;SDS011;24833;49.324;8.694;2023-01-29T01:30:25;4.45;;;3.50;;
38715;SDS011;24833;49.324;8.694;2023-01-29T01:32:52;4.25;;;3.65;;
38715;SDS011;24833;49.324;8.694;2023-01-29T01:35:19;4.38;;;3.28;;
38715;SDS011;24833;49.324;8.694;2023-01-29T01:37:46;4.15;;;3.40;;
38715;SDS011;24833;49.324;8.694;2023-01-29T01:40:14;3.70;;;3.35;;
38715;SDS011;24833;49.324;8.694;2023-01-29T01:42:50;4.45;;;3.10;;
38715;SDS011;24833;49.324;8.694;2023-01-29T01:48:05;4.05;;;3.30;;
38715;SDS011;24833;49.324;8.694;2023-01-29T01:50:47;3.85;;;3.10;;
38715;SDS011;24833;49.324;8.694;2023-01-29T01:53:21;3.85;;;2.92;;
38715;SDS011;24833;49.324;8.694;2023-01-29T01:56:00;2.95;;;2.47;;
38715;SDS011;24833;49.324;8.694;2023-01-29T01:58:36;3.15;;;2.55;;
38715;SDS011;24833;49.324;8.694;2023-01-29T02:01:16;2.70;;;2.35;;
38715;SDS011;24833;49.324;8.694;2023-01-29T02:03:56;2.95;;;2.60;;
38715;SDS011;24833;49.324;8.694;2023-01-29T02:06:48;2.90;;;2.45;;
38715;SDS011;24833;49.324;8.694;2023-01-29T02:09:38;2.20;;;2.00;;
38715;SDS011;24833;49.324;8.694;2023-01-29T02:12:12;2.67;;;2.47;;
38715;SDS011;24833;49.324;8.694;2023-01-29T02:14:41;2.53;;;2.25;;
38715;SDS011;24833;49.324;8.694;2023-01-29T02:17:13;2.38;;;2.17;;
38715;SDS011;24833;49.324;8.694;2023-01-29T02:20:29;3.30;;;2.50;;
38715;SDS011;24833;49.324;8.694;2023-01-29T02:30:58;3.83;;;2.97;;
38715;SDS011;24833;49.324;8.694;2023-01-29T02:33:47;3.75;;;2.75;;
38715;SDS011;24833;49.324;8.694;2023-01-29T02:44:50;2.60;;;2.40;;
38715;SDS011;24833;49.324;8.694;2023-01-29T02:47:45;5.07;;;2.80;;
38715;SDS011;24833;49.324;8.694;2023-01-29T02:50:31;3.65;;;2.65;;
38715;SDS011;24833;49.324;8.694;2023-01-29T02:53:40;3.35;;;2.60;;
38715;SDS011;24833;49.324;8.694;2023-01-29T02:56:47;3.40;;;2.95;;
38715;SDS011;24833;49.324;8.694;2023-01-29T02:59:24;4.05;;;2.85;;
38715;SDS011;24833;49.324;8.694;2023-01-29T03:02:07;3.78;;;3.10;;
38715;SDS011;24833;49.324;8.694;2023-01-29T03:04:40;3.38;;;3.08;;
38715;SDS011;24833;49.324;8.694;2023-01-29T03:07:17;3.45;;;3.15;;
38715;SDS011;24833;49.324;8.694;2023-01-29T03:10:18;3.20;;;2.60;;
38715;SDS011;24833;49.324;8.694;2023-01-29T03:12:58;2.83;;;2.50;;
38715;SDS011;24833;49.324;8.694;2023-01-29T03:16:46;3.45;;;3.05;;
38715;SDS011;24833;49.324;8.694;2023-01-29T03:19:17;3.05;;;2.72;;
38715;SDS011;24833;49.324;8.694;2023-01-29T03:22:18;3.22;;;2.70;;
38715;SDS011;24833;49.324;8.694;2023-01-29T03:24:49;3.38;;;2.60;;
38715;SDS011;24833;49.324;8.694;2023-01-29T03:27:48;3.55;;;2.97;;
38715;SDS011;24833;49.324;8.694;2023-01-29T03:30:49;4.30;;;2.90;;
38715;SDS011;24833;49.324;8.694;2023-01-29T03:33:51;3.67;;;2.70;;
38715;SDS011;24833;49.324;8.694;2023-01-29T03:36:43;4.07;;;3.03;;
38715;SDS011;24833;49.324;8.694;2023-01-29T03:39:15;3.72;;;3.15;;
38715;SDS011;24833;49.324;8.694;2023-01-29T03:41:45;3.22;;;2.75;;
38715;SDS011;24833;49.324;8.694;2023-01-29T03:47:36;3.20;;;2.72;;
38715;SDS011;24833;49.324;8.694;2023-01-29T03:50:42;3.08;;;2.45;;
38715;SDS011;24833;49.324;8.694;2023-01-29T03:53:23;3.20;;;2.72;;
38715;SDS011;24833;49.324;8.694;2023-01-29T03:56:04;2.72;;;2.47;;
38715;SDS011;24833;49.324;8.694;2023-01-29T03:59:05;4.30;;;3.22;;
38715;SDS011;24833;49.324;8.694;2023-01-29T04:02:18;3.13;;;2.67;;
38715;SDS011;24833;49.324;8.694;2023-01-29T04:04:55;2.50;;;2.30;;
38715;SDS011;24833;49.324;8.694;2023-01-29T04:10:08;2.88;;;2.20;;
38715;SDS011;24833;49.324;8.694;2023-01-29T04:15:18;2.42;;;2.22;;
38715;SDS011;24833;49.324;8.694;2023-01-29T04:17:49;2.92;;;2.30;;
38715;SDS011;24833;49.324;8.694;2023-01-29T04:20:41;1.85;;;1.75;;
38715;SDS011;24833;49.324;8.694;2023-01-29T04:23:22;1.98;;;1.73;;
38715;SDS011;24833;49.324;8.694;2023-01-29T04:25:55;2.30;;;2.10;;
38715;SDS011;24833;49.324;8.694;2023-01-29T04:28:52;2.33;;;2.13;;
38715;SDS011;24833;49.324;8.694;2023-01-29T04:31:48;2.35;;;1.90;;
38715;SDS011;24833;49.324;8.694;2023-01-29T04:34:28;3.17;;;2.03;;
38715;SDS011;24833;49.324;8.694;2023-01-29T04:37:28;2.95;;;2.17;;
38715;SDS011;24833;49.324;8.694;2023-01-29T04:40:25;2.78;;;2.35;;
38715;SDS011;24833;49.324;8.694;2023-01-29T04:43:17;3.05;;;2.42;;
38715;SDS011;24833;49.324;8.694;2023-01-29T04:48:53;3.88;;;3.30;;
38715;SDS011;24833;49.324;8.694;2023-01-29T04:54:26;2.85;;;2.60;;
38715;SDS011;24833;49.324;8.694;2023-01-29T04:57:24;3.13;;;2.28;;
38715;SDS011;24833;49.324;8.694;2023-01-29T05:00:02;3.97;;;2.83;;
38715;SDS011;24833;49.324;8.694;2023-01-29T05:03:07;3.40;;;3.10;;
38715;SDS011;24833;49.324;8.694;2023-01-29T05:05:38;3.03;;;2.72;;
38715;SDS011;24833;49.324;8.694;2023-01-29T05:10:37;3.72;;;2.53;;
38715;SDS011;24833;49.324;8.694;2023-01-29T05:13:05;3.30;;;2.80;;
38715;SDS011;24833;49.324;8.694;2023-01-29T05:15:38;3.60;;;3.00;;
38715;SDS011;24833;49.324;8.694;2023-01-29T05:18:20;4.30;;;3.05;;
38715;SDS011;24833;49.324;8.694;2023-01-29T05:20:47;3.13;;;2.72;;
38715;SDS011;24833;49.324;8.694;2023-01-29T05:23:20;3.13;;;2.83;;
38715;SDS011;24833;49.324;8.694;2023-01-29T05:25:49;2.85;;;2.60;;
38715;SDS011;24833;49.324;8.694;2023-01-29T05:28:17;3.30;;;2.83;;
38715;SDS011;24833;49.324;8.694;2023-01-29T05:30:48;4.72;;;2.97;;
38715;SDS011;24833;49.324;8.694;2023-01-29T05:33:21;3.60;;;2.95;;
38715;SDS011;24833;49.324;8.694;2023-01-29T05:35:54;3.13;;;2.83;;
38715;SDS011;24833;49.324;8.694;2023-01-29T05:38:24;3.45;;;2.40;;
38715;SDS011;24833;49.324;8.694;2023-01-29T05:40:51;3.60;;;2.80;;
38715;SDS011;24833;49.324;8.694;2023-01-29T05:43:22;2.92;;;2.28;;
38715;SDS011;24833;49.324;8.694;2023-01-29T05:45:51;3.45;;;2.53;;
38715;SDS011;24833;49.324;8.694;2023-01-29T05:48:19;3.40;;;2.75;;
38715;SDS011;24833;49.324;8.694;2023-01-29T05:50:46;2.78;;;2.58;;
38715;SDS011;24833;49.324;8.694;2023-01-29T05:53:14;3.45;;;2.67;;
38715;SDS011;24833;49.324;8.694;2023-01-29T05:55:44;3.47;;;2.42;;
38715;SDS011;24833;49.324;8.694;2023-01-29T05:58:13;3.30;;;2.40;;
38715;SDS011;24833;49.324;8.694;2023-01-29T06:00:40;2.35;;;2.15;;
38715;SDS011;24833;49.324;8.694;2023-01-29T06:03:07;2.67;;;2.38;;
38715;SDS011;24833;49.324;8.694;2023-01-29T06:05:36;2.72;;;2.10;;
38715;SDS011;24833;49.324;8.694;2023-01-29T06:08:04;3.72;;;2.25;;
38715;SDS011;24833;49.324;8.694;2023-01-29T06:10:32;3.92;;;2.15;;
38715;SDS011;24833;49.324;8.694;2023-01-29T06:12:59;2.65;;;2.28;;
38715;SDS011;24833;49.324;8.694;2023-01-29T06:15:26;2.47;;;1.90;;
38715;SDS011;24833;49.324;8.694;2023-01-29T06:17:54;2.53;;;2.10;;
38715;SDS011;24833;49.324;8.694;2023-01-29T06:20:22;2.75;;;2.17;;
38715;SDS011;24833;49.324;8.694;2023-01-29T06:22:50;2.15;;;1.95;;
38715;SDS011;24833;49.324;8.694;2023-01-29T06:25:17;3.15;;;2.42;;
38715;SDS011;24833;49.324;8.694;2023-01-29T06:27:44;2.22;;;2.03;;
38715;SDS011;24833;49.324;8.694;2023-01-29T06:30:11;3.38;;;2.50;;
38715;SDS011;24833;49.324;8.694;2023-01-29T06:32:38;2.42;;;2.20;;
38715;SDS011;24833;49.324;8.694;2023-01-29T06:35:05;3.15;;;2.45;;
38715;SDS011;24833;49.324;8.694;2023-01-29T06:37:33;3.53;;;2.42;;
38715;SDS011;24833;49.324;8.694;2023-01-29T06:39:59;2.45;;;2.10;;
38715;SDS011;24833;49.324;8.694;2023-01-29T06:42:26;2.42;;;2.22;;
38715;SDS011;24833;49.324;8.694;2023-01-29T06:44:54;2.40;;;2.20;;
38715;SDS011;24833;49.324;8.694;2023-01-29T06:47:22;2.35;;;2.10;;
38715;SDS011;24833;49.324;8.694;2023-01-29T06:49:49;3.97;;;2.88;;
38715;SDS011;24833;49.324;8.694;2023-01-29T06:52:17;3.88;;;2.75;;
38715;SDS011;24833;49.324;8.694;2023-01-29T06:54:44;3.58;;;2.05;;
38715;SDS011;24833;49.324;8.694;2023-01-29T06:57:11;3.33;;;2.65;;
38715;SDS011;24833;49.324;8.694;2023-01-29T06:59:38;2.53;;;2.33;;
38715;SDS011;24833;49.324;8.694;2023-01-29T07:02:05;3.05;;;2.40;;
38715;SDS011;24833;49.324;8.694;2023-01-29T07:04:32;2.95;;;2.42;;
38715;SDS011;24833;49.324;8.694;2023-01-29T07:07:00;3.00;;;2.70;;
38715;SDS011;24833;49.324;8.694;2023-01-29T07:09:27;2.88;;;2.60;;
38715;SDS011;24833;49.324;8.694;2023-01-29T07:11:54;2.85;;;2.60;;
38715;SDS011;24833;49.324;8.694;2023-01-29T07:14:21;3.90;;;2.90;;
38715;SDS011;24833;49.324;8.694;2023-01-29T07:16:48;6.03;;;2.95;;
38715;SDS011;24833;49.324;8.694;2023-01-29T07:19:15;4.30;;;3.50;;
38715;SDS011;24833;49.324;8.694;2023-01-29T07:21:42;3.67;;;2.85;;
38715;SDS011;24833;49.324;8.694;2023-01-29T07:24:09;3.10;;;2.70;;
38715;SDS011;24833;49.324;8.694;2023-01-29T07:26:36;3.22;;;2.92;;
38715;SDS011;24833;49.324;8.694;2023-01-29T07:29:03;5.07;;;3.90;;
38715;SDS011;24833;49.324;8.694;2023-01-29T07:31:30;5.32;;;3.92;;
38715;SDS011;24833;49.324;8.694;2023-01-29T07:33:58;4.72;;;4.15;;
38715;SDS011;24833;49.324;8.694;2023-01-29T07:36:25;5.07;;;3.72;;
38715;SDS011;24833;49.324;8.694;2023-01-29T07:38:52;4.32;;;3.47;;
38715;SDS011;24833;49.324;8.694;2023-01-29T07:41:19;4.20;;;3.40;;
38715;SDS011;24833;49.324;8.694;2023-01-29T07:43:46;3.67;;;3.30;;
38715;SDS011;24833;49.324;8.694;2023-01-29T07:46:13;3.47;;;3.08;;
38715;SDS011;24833;49.324;8.694;2023-01-29T07:48:40;4.65;;;3.38;;
38715;SDS011;24833;49.324;8.694;2023-01-29T07:51:07;3.83;;;3.50;;
38715;SDS011;24833;49.324;8.694;2023-01-29T07:53:34;4.18;;;3.42;;
38715;SDS011;24833;49.324;8.694;2023-01-29T07:56:02;4.63;;;3.63;;
38715;SDS011;24833;49.324;8.694;2023-01-29T07:58:29;4.63;;;3.70;;
38715;SDS011;24833;49.324;8.694;2023-01-29T08:00:56;4.40;;;4.00;;
38715;SDS011;24833;49.324;8.694;2023-01-29T08:03:23;4.20;;;3.72;;
38715;SDS011;24833;49.324;8.694;2023-01-29T08:05:50;4.60;;;3.80;;
38715;SDS011;24833;49.324;8.694;2023-01-29T08:08:17;4.50;;;3.90;;
38715;SDS011;24833;49.324;8.694;2023-01-29T08:10:44;4.28;;;3.25;;
38715;SDS011;24833;49.324;8.694;2023-01-29T08:13:11;5.82;;;3.97;;
38715;SDS011;24833;49.324;8.694;2023-01-29T08:15:41;4.63;;;3.67;;
38715;SDS011;24833;49.324;8.694;2023-01-29T08:18:11;4.40;;;3.63;;
38715;SDS011;24833;49.324;8.694;2023-01-29T08:20:38;4.90;;;4.00;;
38715;SDS011;24833;49.324;8.694;2023-01-29T08:23:07;4.03;;;3.30;;
38715;SDS011;24833;49.324;8.694;2023-01-29T08:25:40;4.25;;;3.55;;
38715;SDS011;24833;49.324;8.694;2023-01-29T08:28:07;4.03;;;3.63;;
38715;SDS011;24833;49.324;8.694;2023-01-29T08:30:35;4.05;;;3.65;;
38715;SDS011;24833;49.324;8.694;2023-01-29T08:33:02;4.90;;;3.78;;
38715;SDS011;24833;49.324;8.694;2023-01-29T08:35:29;5.43;;;3.80;;
38715;SDS011;24833;49.324;8.694;2023-01-29T08:37:58;4.00;;;3.60;;
38715;SDS011;24833;49.324;8.694;2023-01-29T08:40:27;4.90;;;3.97;;
38715;SDS011;24833;49.324;8.694;2023-01-29T08:43:00;4.70;;;3.92;;
38715;SDS011;24833;49.324;8.694;2023-01-29T08:45:33;5.63;;;4.55;;
38715;SDS011;24833;49.324;8.694;2023-01-29T08:48:02;4.10;;;3.40;;
38715;SDS011;24833;49.324;8.694;2023-01-29T08:50:29;4.78;;;3.53;;
38715;SDS011;24833;49.324;8.694;2023-01-29T08:52:57;5.03;;;3.83;;
38715;SDS011;24833;49.324;8.694;2023-01-29T08:55:26;4.53;;;3.13;;
38715;SDS011;24833;49.324;8.694;2023-01-29T08:57:54;4.45;;;3.50;;
38715;SDS011;24833;49.324;8.694;2023-01-29T09:00:24;4.63;;;3.57;;
38715;SDS011;24833;49.324;8.694;2023-01-29T09:02:51;4.05;;;3.17;;
38715;SDS011;24833;49.324;8.694;2023-01-29T09:05:18;3.47;;;3.10;;
38715;SDS011;24833;49.324;8.694;2023-01-29T09:07:45;3.30;;;3.00;;
38715;SDS011;24833;49.324;8.694;2023-01-29T09:10:12;4.65;;;3.70;;
38715;SDS011;24833;49.324;8.694;2023-01-29T09:12:40;5.10;;;3.80;;
38715;SDS011;24833;49.324;8.694;2023-01-29T09:15:07;5.43;;;4.28;;
38715;SDS011;24833;49.324;8.694;2023-01-29T09:17:35;5.50;;;4.57;;
38715;SDS011;24833;49.324;8.694;2023-01-29T09:20:02;4.43;;;4.03;;
38715;SDS011;24833;49.324;8.694;2023-01-29T09:22:31;5.07;;;4.03;;
38715;SDS011;24833;49.324;8.694;2023-01-29T09:24:58;4.82;;;4.03;;
38715;SDS011;24833;49.324;8.694;2023-01-29T09:27:25;5.50;;;4.57;;
38715;SDS011;24833;49.324;8.694;2023-01-29T09:29:52;5.10;;;4.20;;
38715;SDS011;24833;49.324;8.694;2023-01-29T09:32:19;4.68;;;4.15;;
38715;SDS011;24833;49.324;8.694;2023-01-29T09:35:06;4.25;;;3.70;;
38715;SDS011;24833;49.324;8.694;2023-01-29T09:37:34;4.30;;;3.55;;
38715;SDS011;24833;49.324;8.694;2023-01-29T09:40:01;6.50;;;3.88;;
38715;SDS011;24833;49.324;8.694;2023-01-29T09:42:35;4.88;;;4.25;;
38715;SDS011;24833;49.324;8.694;2023-01-29T09:45:20;4.03;;;3.20;;
38715;SDS011;24833;49.324;8.694;2023-01-29T09:47:50;4.13;;;3.72;;
38715;SDS011;24833;49.324;8.694;2023-01-29T09:50:21;5.32;;;4.13;;
38715;SDS011;24833;49.324;8.694;2023-01-29T09:56:20;5.30;;;4.13;;
38715;SDS011;24833;49.324;8.694;2023-01-29T09:58:55;5.43;;;4.20;;
38715;SDS011;24833;49.324;8.694;2023-01-29T10:01:31;5.10;;;4.32;;
38715;SDS011;24833;49.324;8.694;2023-01-29T10:12:59;6.18;;;4.32;;
38715;SDS011;24833;49.324;8.694;2023-01-29T10:15:49;4.45;;;3.70;;
38715;SDS011;24833;49.324;8.694;2023-01-29T10:19:03;3.80;;;3.42;;
38715;SDS011;24833;49.324;8.694;2023-01-29T10:22:31;3.75;;;3.30;;
38715;SDS011;24833;49.324;8.694;2023-01-29T10:25:27;5.20;;;4.25;;
38715;SDS011;24833;49.324;8.694;2023-01-29T10:27:56;4.60;;;3.45;;
38715;SDS011;24833;49.324;8.694;2023-01-29T10:33:08;6.43;;;4.15;;
38715;SDS011;24833;49.324;8.694;2023-01-29T10:35:52;5.75;;;4.05;;
38715;SDS011;24833;49.324;8.694;2023-01-29T10:53:32;6.45;;;4.85;;
38715;SDS011;24833;49.324;8.694;2023-01-29T10:59:09;9.07;;;5.60;;
38715;SDS011;24833;49.324;8.694;2023-01-29T11:01:58;6.43;;;5.53;;
38715;SDS011;24833;49.324;8.694;2023-01-29T11:04:26;7.07;;;5.25;;
38715;SDS011;24833;49.324;8.694;2023-01-29T11:06:55;8.40;;;5.32;;
38715;SDS011;24833;49.324;8.694;2023-01-29T11:09:31;7.43;;;5.95;;
38715;SDS011;24833;49.324;8.694;2023-01-29T11:17:18;6.70;;;5.68;;
38715;SDS011;24833;49.324;8.694;2023-01-29T11:19:48;7.32;;;5.70;;
38715;SDS011;24833;49.324;8.694;2023-01-29T11:22:18;9.23;;;6.35;;
38715;SDS011;24833;49.324;8.694;2023-01-29T11:25:05;7.35;;;5.85;;
38715;SDS011;24833;49.324;8.694;2023-01-29T11:30:30;8.18;;;5.97;;
38715;SDS011;24833;49.324;8.694;2023-01-29T11:33:22;7.65;;;5.60;;
38715;SDS011;24833;49.324;8.694;2023-01-29T11:35:49;9.52;;;6.30;;
38715;SDS011;24833;49.324;8.694;2023-01-29T11:40:49;8.43;;;6.00;;
38715;SDS011;24833;49.324;8.694;2023-01-29T11:43:17;10.05;;;7.53;;
38715;SDS011;24833;49.324;8.694;2023-01-29T11:45:55;8.35;;;6.38;;
38715;SDS011;24833;49.324;8.694;2023-01-29T11:48:42;9.93;;;5.85;;
38715;SDS011;24833;49.324;8.694;2023-01-29T11:51:19;7.90;;;6.18;;
38715;SDS011;24833;49.324;8.694;2023-01-29T11:54:24;8.52;;;6.00;;
38715;SDS011;24833;49.324;8.694;2023-01-29T11:56:45;8.48;;;5.85;;
38715;SDS011;24833;49.324;8.694;2023-01-29T11:59:35;9.75;;;6.63;;
38715;SDS011;24833;49.324;8.694;2023-01-29T12:02:28;9.45;;;7.07;;
38715;SDS011;24833;49.324;8.694;2023-01-29T12:05:17;8.07;;;5.88;;
38715;SDS011;24833;49.324;8.694;2023-01-29T12:07:49;8.60;;;6.40;;
38715;SDS011;24833;49.324;8.694;2023-01-29T12:10:38;9.30;;;6.88;;
38715;SDS011;24833;49.324;8.694;2023-01-29T12:15:41;7.65;;;6.03;;
38715;SDS011;24833;49.324;8.694;2023-01-29T12:21:03;8.40;;;6.35;;
38715;SDS011;24833;49.324;8.694;2023-01-29T12:24:00;9.60;;;6.68;;
38715;SDS011;24833;49.324;8.694;2023-01-29T12:26:38;8.38;;;6.03;;
38715;SDS011;24833;49.324;8.694;2023-01-29T12:29:30;7.80;;;6.40;;
38715;SDS011;24833;49.324;8.694;2023-01-29T12:32:28;7.25;;;6.05;;
38715;SDS011;24833;49.324;8.694;2023-01-29T12:35:20;7.63;;;5.50;;
38715;SDS011;24833;49.324;8.694;2023-01-29T12:38:02;7.63;;;6.13;;
38715;SDS011;24833;49.324;8.694;2023-01-29T12:40:57;8.43;;;6.32;;
38715;SDS011;24833;49.324;8.694;2023-01-29T12:43:43;7.50;;;5.88;;
38715;SDS011;24833;49.324;8.694;2023-01-29T12:46:23;8.93;;;6.47;;
38715;SDS011;24833;49.324;8.694;2023-01-29T12:49:00;8.38;;;6.85;;
38715;SDS011;24833;49.324;8.694;2023-01-29T12:51:34;10.52;;;6.57;;
38715;SDS011;24833;49.324;8.694;2023-01-29T12:54:18;8.15;;;6.07;;
38715;SDS011;24833;49.324;8.694;2023-01-29T12:56:57;8.38;;;6.13;;
38715;SDS011;24833;49.324;8.694;2023-01-29T12:59:35;8.75;;;6.32;;
38715;SDS011;24833;49.324;8.694;2023-01-29T13:05:25;8.38;;;6.47;;
38715;SDS011;24833;49.324;8.694;2023-01-29T13:08:04;6.75;;;5.80;;
38715;SDS011;24833;49.324;8.694;2023-01-29T13:10:41;6.85;;;6.00;;
38715;SDS011;24833;49.324;8.694;2023-01-29T13:13:33;8.48;;;7.07;;
38715;SDS011;24833;49.324;8.694;2023-01-29T13:16:27;7.70;;;6.22;;
38715;SDS011;24833;49.324;8.694;2023-01-29T13:22:01;10.07;;;6.80;;
38715;SDS011;24833;49.324;8.694;2023-01-29T13:24:38;7.88;;;6.60;;
38715;SDS011;24833;49.324;8.694;2023-01-29T13:27:06;7.15;;;6.43;;
38715;SDS011;24833;49.324;8.694;2023-01-29T13:29:53;8.38;;;6.65;;
38715;SDS011;24833;49.324;8.694;2023-01-29T13:32:22;8.70;;;6.97;;
38715;SDS011;24833;49.324;8.694;2023-01-29T13:34:55;9.55;;;7.43;;
38715;SDS011;24833;49.324;8.694;2023-01-29T13:37:52;8.05;;;6.65;;
38715;SDS011;24833;49.324;8.694;2023-01-29T13:40:22;8.18;;;6.32;;
38715;SDS011;24833;49.324;8.694;2023-01-29T13:42:53;9.32;;;7.10;;
38715;SDS011;24833;49.324;8.694;2023-01-29T13:45:26;6.88;;;6.03;;
38715;SDS011;24833;49.324;8.694;2023-01-29T13:48:20;9.00;;;7.18;;
38715;SDS011;24833;49.324;8.694;2023-01-29T13:50:54;7.97;;;6.50;;
38715;SDS011;24833;49.324;8.694;2023-01-29T13:53:29;8.52;;;6.20;;
38715;SDS011;24833;49.324;8.694;2023-01-29T13:56:27;7.83;;;6.53;;
38715;SDS011;24833;49.324;8.694;2023-01-29T13:58:58;6.82;;;5.75;;
38715;SDS011;24833;49.324;8.694;2023-01-29T14:06:58;8.35;;;6.65;;
38715;SDS011;24833;49.324;8.694;2023-01-29T14:17:14;7.43;;;6.07;;
38715;SDS011;24833;49.324;8.694;2023-01-29T14:19:49;8.88;;;6.50;;
38715;SDS011;24833;49.324;8.694;2023-01-29T14:22:26;7.82;;;6.38;;
38715;SDS011;24833;49.324;8.694;2023-01-29T14:24:56;8.80;;;6.88;;
38715;SDS011;24833;49.324;8.694;2023-01-29T14:27:28;8.75;;;6.97;;
38715;SDS011;24833;49.324;8.694;2023-01-29T14:29:59;8.45;;;7.07;;
38715;SDS011;24833;49.324;8.694;2023-01-29T14:32:36;9.60;;;7.70;;
38715;SDS011;24833;49.324;8.694;2023-01-29T14:35:18;10.67;;;7.27;;
38715;SDS011;24833;49.324;8.694;2023-01-29T14:37:52;9.55;;;7.05;;
38715;SDS011;24833;49.324;8.694;2023-01-29T14:40:27;7.65;;;6.68;;
38715;SDS011;24833;49.324;8.694;2023-01-29T14:45:29;9.85;;;6.97;;
38715;SDS011;24833;49.324;8.694;2023-01-29T14:48:00;10.13;;;7.18;;
38715;SDS011;24833;49.324;8.694;2023-01-29T14:51:09;8.43;;;6.65;;
38715;SDS011;24833;49.324;8.694;2023-01-29T14:56:44;8.77;;;6.55;;
38715;SDS011;24833;49.324;8.694;2023-01-29T14:59:32;8.57;;;6.55;;
38715;SDS011;24833;49.324;8.694;2023-01-29T15:02:13;9.32;;;7.18;;
38715;SDS011;24833;49.324;8.694;2023-01-29T15:04:58;10.02;;;7.65;;
38715;SDS011;24833;49.324;8.694;2023-01-29T15:07:33;8.32;;;6.97;;
38715;SDS011;24833;49.324;8.694;2023-01-29T15:10:39;7.97;;;6.22;;
38715;SDS011;24833;49.324;8.694;2023-01-29T15:13:17;7.60;;;6.72;;
38715;SDS011;24833;49.324;8.694;2023-01-29T15:16:07;7.18;;;5.75;;
38715;SDS011;24833;49.324;8.694;2023-01-29T15:18:41;8.33;;;6.47;;
38715;SDS011;24833;49.324;8.694;2023-01-29T15:21:13;7.95;;;6.43;;
38715;SDS011;24833;49.324;8.694;2023-01-29T15:23:42;9.13;;;6.82;;
38715;SDS011;24833;49.324;8.694;2023-01-29T15:26:11;7.15;;;6.18;;
38715;SDS011;24833;49.324;8.694;2023-01-29T15:28:53;8.30;;;6.53;;
38715;SDS011;24833;49.324;8.694;2023-01-29T15:31:29;10.18;;;6.70;;
38715;SDS011;24833;49.324;8.694;2023-01-29T15:33:57;9.60;;;7.18;;
38715;SDS011;24833;49.324;8.694;2023-01-29T15:36:30;8.32;;;6.35;;
38715;SDS011;24833;49.324;8.694;2023-01-29T15:41:50;7.53;;;5.93;;
38715;SDS011;24833;49.324;8.694;2023-01-29T15:44:48;8.63;;;6.25;;
38715;SDS011;24833;49.324;8.694;2023-01-29T15:47:15;11.50;;;6.60;;
38715;SDS011;24833;49.324;8.694;2023-01-29T15:49:43;8.70;;;6.28;;
38715;SDS011;24833;49.324;8.694;2023-01-29T15:52:16;8.40;;;6.28;;
38715;SDS011;24833;49.324;8.694;2023-01-29T15:54:47;7.95;;;6.10;;
38715;SDS011;24833;49.324;8.694;2023-01-29T15:57:18;7.45;;;6.13;;
38715;SDS011;24833;49.324;8.694;2023-01-29T15:59:59;7.75;;;5.78;;
38715;SDS011;24833;49.324;8.694;2023-01-29T16:02:37;8.05;;;6.18;;
38715;SDS011;24833;49.324;8.694;2023-01-29T16:05:10;8.38;;;6.45;;
38715;SDS011;24833;49.324;8.694;2023-01-29T16:07:43;8.93;;;6.85;;
38715;SDS011;24833;49.324;8.694;2023-01-29T16:10:32;7.75;;;6.15;;
38715;SDS011;24833;49.324;8.694;2023-01-29T16:12:59;8.32;;;6.50;;
38715;SDS011;24833;49.324;8.694;2023-01-29T16:15:31;7.75;;;6.35;;
38715;SDS011;24833;49.324;8.694;2023-01-29T16:18:02;6.50;;;5.57;;
38715;SDS011;24833;49.324;8.694;2023-01-29T16:20:49;9.18;;;6.55;;
38715;SDS011;24833;49.324;8.694;2023-01-29T16:23:23;7.68;;;6.07;;
38715;SDS011;24833;49.324;8.694;2023-01-29T16:26:00;7.90;;;6.47;;
38715;SDS011;24833;49.324;8.694;2023-01-29T16:28:33;11.20;;;6.80;;
38715;SDS011;24833;49.324;8.694;2023-01-29T16:31:06;10.23;;;7.40;;
38715;SDS011;24833;49.324;8.694;2023-01-29T16:33:37;9.00;;;6.95;;
38715;SDS011;24833;49.324;8.694;2023-01-29T16:36:11;9.73;;;7.05;;
38715;SDS011;24833;49.324;8.694;2023-01-29T16:38:51;10.10;;;7.22;;
38715;SDS011;24833;49.324;8.694;2023-01-29T16:41:29;9.52;;;7.28;;
38715;SDS011;24833;49.324;8.694;2023-01-29T16:44:01;9.20;;;6.93;;
38715;SDS011;24833;49.324;8.694;2023-01-29T16:46:44;8.93;;;6.40;;
38715;SDS011;24833;49.324;8.694;2023-01-29T16:49:41;9.05;;;6.75;;
38715;SDS011;24833;49.324;8.694;2023-01-29T16:54:59;8.13;;;6.05;;
38715;SDS011;24833;49.324;8.694;2023-01-29T16:57:38;7.53;;;6.28;;
38715;SDS011;24833;49.324;8.694;2023-01-29T17:00:06;7.97;;;5.55;;
38715;SDS011;24833;49.324;8.694;2023-01-29T17:02:46;7.82;;;5.78;;
38715;SDS011;24833;49.324;8.694;2023-01-29T17:05:20;7.97;;;5.35;;
38715;SDS011;24833;49.324;8.694;2023-01-29T17:07:54;10.10;;;6.35;;
38715;SDS011;24833;49.324;8.694;2023-01-29T17:10:26;7.95;;;6.35;;
38715;SDS011;24833;49.324;8.694;2023-01-29T17:15:34;9.20;;;5.50;;
38715;SDS011;24833;49.324;8.694;2023-01-29T17:18:23;7.65;;;5.72;;
38715;SDS011;24833;49.324;8.694;2023-01-29T17:20:50;7.93;;;5.75;;
38715;SDS011;24833;49.324;8.694;2023-01-29T17:23:20;7.68;;;5.40;;
38715;SDS011;24833;49.324;8.694;2023-01-29T17:25:48;7.10;;;5.22;;
38715;SDS011;24833;49.324;8.694;2023-01-29T17:28:16;7.45;;;5.72;;
38715;SDS011;24833;49.324;8.694;2023-01-29T17:30:43;7.93;;;5.93;;
38715;SDS011;24833;49.324;8.694;2023-01-29T17:33:25;6.47;;;5.50;;
38715;SDS011;24833;49.324;8.694;2023-01-29T17:35:53;7.75;;;5.65;;
38715;SDS011;24833;49.324;8.694;2023-01-29T17:38:20;8.02;;;5.70;;
38715;SDS011;24833;49.324;8.694;2023-01-29T17:43:25;8.23;;;5.90;;